Time;durP1;ratioP1;P1;durP2;ratioP2;P2;SDS_P1;SDS_P2;PMS_P1;PMS_P2;Temp;Humidity;BMP_temperature;BMP_pressure;BME280_temperature;BME280_humidity;BME280_pressure;Samples;Min_cycle;Max_cycle;Signal;HPM_P1;HPM_P2
2023/04/09 00:01:59;;;;;;;14.52;9.75;;;;;;;;;;6240549;28;20060;-76
2023/04/09 00:05:01;;;;;;;16.00;10.07;;;;;;;;;;6239665;28;20053;-77
2023/04/09 00:08:03;;;;;;;12.77;10.10;;;;;;;;;;6239668;28;20060;-76
2023/04/09 00:11:05;;;;;;;12.32;9.38;;;;;;;;;;6241466;28;20143;-77
2023/04/09 00:14:06;;;;;;;13.23;10.15;;;;;;;;;;6240748;28;20113;-77
2023/04/09 00:17:09;;;;;;;14.00;9.85;;;;;;;;;;6239056;28;20046;-77
2023/04/09 00:20:11;;;;;;;12.13;9.50;;;;;;;;;;6241087;28;20057;-77
2023/04/09 00:23:13;;;;;;;13.05;9.55;;;;;;;;;;6240157;28;20064;-78
2023/04/09 00:26:15;;;;;;;13.30;10.10;;;;;;;;;;6241023;28;20045;-77
2023/04/09 00:29:16;;;;;;;14.50;9.77;;;;;;;;;;6238119;28;20049;-76
2023/04/09 00:32:19;;;;;;;15.32;10.52;;;;;;;;;;6244829;28;20108;-76
2023/04/09 00:35:21;;;;;;;12.93;9.18;;;;;;;;;;6242361;28;20065;-77
2023/04/09 00:38:23;;;;;;;14.02;10.00;;;;;;;;;;6240652;28;20116;-76
2023/04/09 00:41:24;;;;;;;12.43;9.40;;;;;;;;;;6239902;28;20053;-77
2023/04/09 00:44:26;;;;;;;14.07;10.13;;;;;;;;;;6239138;28;20061;-76
2023/04/09 00:47:29;;;;;;;13.20;9.57;;;;;;;;;;6239800;28;20249;-77
2023/04/09 00:50:31;;;;;;;15.40;11.35;;;;;;;;;;6241123;28;20377;-77
2023/04/09 00:53:33;;;;;;;13.57;9.93;;;;;;;;;;6238639;28;20128;-78
2023/04/09 00:56:35;;;;;;;13.00;9.40;;;;;;;;;;6242536;28;20061;-78
2023/04/09 00:59:36;;;;;;;14.00;10.68;;;;;;;;;;6242979;28;20103;-76
2023/04/09 01:02:40;;;;;;;14.05;9.85;;;;;;;;;;6239491;28;20337;-76
2023/04/09 01:05:47;;;;;;;14.10;9.80;;;;;;;;;;6245114;28;20053;-76
2023/04/09 01:08:53;;;;;;;14.30;9.95;;;;;;;;;;6247146;28;20053;-77
2023/04/09 01:12:02;;;;;;;13.50;10.40;;;;;;;;;;6246004;28;20238;-76
2023/04/09 01:15:06;;;;;;;15.90;10.48;;;;;;;;;;6245489;28;20225;-77
2023/04/09 01:18:11;;;;;;;12.85;9.90;;;;;;;;;;6247136;28;20045;-76
2023/04/09 01:21:15;;;;;;;14.52;10.23;;;;;;;;;;6244747;28;20088;-77
2023/04/09 01:24:22;;;;;;;14.43;10.65;;;;;;;;;;6244773;28;20065;-78
2023/04/09 01:27:26;;;;;;;14.32;10.98;;;;;;;;;;6242751;28;20097;-76
2023/04/09 01:30:29;;;;;;;;;;;;;;;;;;6245288;28;20103;-78
2023/04/09 01:33:31;;;;;;;13.95;10.27;;;;;;;;;;6242974;28;19917;-77
2023/04/09 01:36:34;;;;;;;14.10;10.35;;;;;;;;;;6242951;28;20062;-76
2023/04/09 01:39:37;;;;;;;14.10;10.68;;;;;;;;;;6247103;28;20056;-76
2023/04/09 01:42:39;;;;;;;15.93;10.52;;;;;;;;;;6244913;28;20329;-76
2023/04/09 01:45:43;;;;;;;14.43;10.50;;;;;;;;;;6247105;28;20041;-76
2023/04/09 01:48:45;;;;;;;14.23;11.30;;;;;;;;;;6245342;28;20049;-76
2023/04/09 01:51:47;;;;;;;13.25;10.07;;;;;;;;;;6247023;28;20061;-76
2023/04/09 01:54:49;;;;;;;14.50;10.15;;;;;;;;;;6243214;28;20057;-76
2023/04/09 01:57:50;;;;;;;13.48;9.88;;;;;;;;;;6244512;28;20070;-77
2023/04/09 02:00:57;;;;;;;14.57;10.75;;;;;;;;;;6244848;28;20049;-77
2023/04/09 02:04:02;;;;;;;15.25;9.70;;;;;;;;;;6244232;28;20311;-76
2023/04/09 02:07:06;;;;;;;16.13;10.68;;;;;;;;;;6245323;28;20112;-76
2023/04/09 02:10:10;;;;;;;13.02;9.73;;;;;;;;;;6243706;28;20060;-77
2023/04/09 02:13:16;;;;;;;14.25;10.75;;;;;;;;;;6246905;28;20045;-77
2023/04/09 02:16:19;;;;;;;13.63;9.52;;;;;;;;;;6242934;28;20057;-77
2023/04/09 02:19:21;;;;;;;12.70;10.27;;;;;;;;;;6247298;28;20241;-76
2023/04/09 02:22:22;;;;;;;12.88;9.88;;;;;;;;;;6245111;28;20062;-76
2023/04/09 02:25:24;;;;;;;15.00;10.25;;;;;;;;;;6245602;28;20341;-77
2023/04/09 02:28:26;;;;;;;14.15;9.68;;;;;;;;;;6249888;28;20112;-77
2023/04/09 02:31:29;;;;;;;14.30;9.98;;;;;;;;;;6249890;28;20041;-76
2023/04/09 02:34:31;;;;;;;13.65;9.77;;;;;;;;;;6248734;28;20087;-76
2023/04/09 02:37:32;;;;;;;14.32;10.25;;;;;;;;;;6245800;28;20364;-77
2023/04/09 02:40:34;;;;;;;13.40;9.88;;;;;;;;;;6247322;28;20060;-77
2023/04/09 02:43:35;;;;;;;14.00;10.23;;;;;;;;;;6246821;28;20049;-77
2023/04/09 02:46:39;;;;;;;13.88;10.40;;;;;;;;;;6249443;28;20103;-77
2023/04/09 02:49:40;;;;;;;13.73;10.50;;;;;;;;;;6248528;28;20045;-78
2023/04/09 02:52:42;;;;;;;13.75;9.88;;;;;;;;;;6244891;28;20660;-77
2023/04/09 02:55:43;;;;;;;15.48;10.55;;;;;;;;;;6241817;28;20045;-78
2023/04/09 02:58:48;;;;;;;17.05;11.73;;;;;;;;;;6240500;28;20132;-77
2023/04/09 03:01:51;;;;;;;14.55;10.57;;;;;;;;;;6241522;28;20391;-77
2023/04/09 03:04:52;;;;;;;14.43;10.60;;;;;;;;;;6242192;28;20088;-78
2023/04/09 03:07:54;;;;;;;15.55;10.07;;;;;;;;;;6243819;28;20241;-77
2023/04/09 03:10:56;;;;;;;16.15;11.50;;;;;;;;;;6239765;28;20049;-77
2023/04/09 03:13:58;;;;;;;16.70;11.18;;;;;;;;;;6240711;28;20057;-76
2023/04/09 03:17:01;;;;;;;16.95;11.20;;;;;;;;;;6242083;28;20104;-77
2023/04/09 03:20:03;;;;;;;16.33;12.23;;;;;;;;;;6242429;28;20060;-77
2023/04/09 03:23:04;;;;;;;15.88;11.75;;;;;;;;;;6242610;28;20632;-76
2023/04/09 03:26:06;;;;;;;19.50;12.50;;;;;;;;;;6242189;28;20052;-76
2023/04/09 03:29:08;;;;;;;15.52;11.25;;;;;;;;;;6240847;28;20057;-77
2023/04/09 03:32:11;;;;;;;18.08;11.88;;;;;;;;;;6243463;28;20333;-77
2023/04/09 03:35:12;;;;;;;15.73;11.25;;;;;;;;;;6241259;28;20099;-77
2023/04/09 03:38:14;;;;;;;21.23;13.70;;;;;;;;;;6244469;28;20057;-76
2023/04/09 03:41:16;;;;;;;15.80;12.13;;;;;;;;;;6239481;28;20057;-77
2023/04/09 03:44:17;;;;;;;18.40;12.10;;;;;;;;;;6241753;28;20129;-78
2023/04/09 03:47:20;;;;;;;19.40;12.10;;;;;;;;;;6243185;28;20096;-77
2023/04/09 03:50:22;;;;;;;17.45;12.70;;;;;;;;;;6243467;28;20045;-77
2023/04/09 03:53:24;;;;;;;17.52;12.25;;;;;;;;;;6242886;28;20249;-78
2023/04/09 03:56:25;;;;;;;17.38;11.88;;;;;;;;;;6243330;28;20049;-77
2023/04/09 03:59:27;;;;;;;19.45;12.10;;;;;;;;;;6238121;28;20053;-78
2023/04/09 04:02:32;;;;;;;17.90;12.25;;;;;;;;;;6242761;28;20353;-77
2023/04/09 04:05:33;;;;;;;16.95;12.68;;;;;;;;;;6242632;28;20048;-78
2023/04/09 04:08:35;;;;;;;18.30;12.05;;;;;;;;;;6243177;28;20529;-77
2023/04/09 04:11:37;;;;;;;17.95;12.30;;;;;;;;;;6239637;28;20041;-77
2023/04/09 04:14:39;;;;;;;17.70;12.48;;;;;;;;;;6241093;28;20068;-77
2023/04/09 04:17:42;;;;;;;17.30;12.55;;;;;;;;;;6239124;28;20053;-76
2023/04/09 04:20:43;;;;;;;18.98;12.38;;;;;;;;;;6239749;28;20315;-77
2023/04/09 04:23:45;;;;;;;18.27;12.43;;;;;;;;;;6240022;28;20049;-78
2023/04/09 04:26:46;;;;;;;20.92;12.32;;;;;;;;;;6240358;28;20345;-78
2023/04/09 04:29:48;;;;;;;20.40;11.98;;;;;;;;;;6239038;28;20049;-78
2023/04/09 04:32:51;;;;;;;23.13;12.95;;;;;;;;;;6240219;28;20108;-76
2023/04/09 04:35:53;;;;;;;18.77;12.95;;;;;;;;;;6238705;28;20054;-76
2023/04/09 04:38:54;;;;;;;18.50;13.45;;;;;;;;;;6240620;28;20953;-77
2023/04/09 04:41:56;;;;;;;16.83;11.55;;;;;;;;;;6241375;28;20049;-77
2023/04/09 04:44:57;;;;;;;18.55;11.20;;;;;;;;;;6239150;28;20116;-77
2023/04/09 04:48:00;;;;;;;18.02;11.80;;;;;;;;;;6240566;28;20065;-77
2023/04/09 04:51:02;;;;;;;20.23;12.25;;;;;;;;;;6238715;28;20046;-78
2023/04/09 04:54:04;;;;;;;18.92;12.27;;;;;;;;;;6240941;28;20053;-78
2023/04/09 04:57:05;;;;;;;32.30;13.57;;;;;;;;;;6240605;28;20045;-77
2023/04/09 05:00:08;;;;;;;21.58;11.23;;;;;;;;;;6240167;28;20265;-78
2023/04/09 05:03:12;;;;;;;19.52;12.20;;;;;;;;;;6239206;28;20087;-78
2023/04/09 05:06:13;;;;;;;17.85;11.60;;;;;;;;;;6240911;28;20053;-78
2023/04/09 05:09:15;;;;;;;19.60;13.88;;;;;;;;;;6239109;28;20061;-77
2023/04/09 05:12:16;;;;;;;19.05;12.75;;;;;;;;;;6239203;28;20237;-78
2023/04/09 05:15:18;;;;;;;34.80;12.23;;;;;;;;;;6242628;28;20285;-77
2023/04/09 05:18:21;;;;;;;15.88;11.57;;;;;;;;;;6241484;28;20109;-77
2023/04/09 05:21:23;;;;;;;21.73;11.50;;;;;;;;;;6239719;28;20057;-77
2023/04/09 05:24:25;;;;;;;20.15;12.23;;;;;;;;;;6239776;28;20053;-76
2023/04/09 05:27:27;;;;;;;17.63;12.55;;;;;;;;;;6237233;28;20349;-78
2023/04/09 05:30:28;;;;;;;20.45;11.68;;;;;;;;;;6239404;28;20345;-77
2023/04/09 05:33:36;;;;;;;32.08;13.10;;;;;;;;;;6238569;28;20292;-78
2023/04/09 05:36:38;;;;;;;17.80;11.60;;;;;;;;;;6239681;28;20119;-76
2023/04/09 05:39:39;;;;;;;33.17;12.15;;;;;;;;;;6239548;28;20099;-77
2023/04/09 05:42:41;;;;;;;54.83;13.90;;;;;;;;;;6240109;28;20053;-77
2023/04/09 05:45:42;;;;;;;22.15;11.68;;;;;;;;;;6241928;28;20042;-77
2023/04/09 05:48:45;;;;;;;22.55;12.13;;;;;;;;;;6238565;28;20109;-77
2023/04/09 05:51:48;;;;;;;18.25;12.10;;;;;;;;;;6241969;28;20049;-78
2023/04/09 05:54:50;;;;;;;14.40;11.45;;;;;;;;;;6244119;28;20065;-77
2023/04/09 05:57:52;;;;;;;18.65;12.02;;;;;;;;;;6244479;28;20351;-77
2023/04/09 06:00:54;;;;;;;18.60;12.43;;;;;;;;;;6244310;28;20058;-77
2023/04/09 06:03:57;;;;;;;16.40;10.57;;;;;;;;;;6242494;28;20104;-77
2023/04/09 06:06:59;;;;;;;14.35;10.35;;;;;;;;;;6245315;28;20053;-77
2023/04/09 06:10:01;;;;;;;15.13;11.20;;;;;;;;;;6246840;28;20052;-76
2023/04/09 06:13:02;;;;;;;16.75;11.10;;;;;;;;;;6242575;28;20184;-77
2023/04/09 06:16:05;;;;;;;15.13;11.20;;;;;;;;;;6244116;28;20265;-77
2023/04/09 06:19:08;;;;;;;17.70;10.75;;;;;;;;;;6244644;28;20153;-77
2023/04/09 06:22:10;;;;;;;17.98;10.43;;;;;;;;;;6244217;28;20049;-78
2023/04/09 06:25:11;;;;;;;14.40;10.07;;;;;;;;;;6244012;28;20125;-77
2023/04/09 06:28:13;;;;;;;13.23;9.80;;;;;;;;;;6245442;28;20050;-77
2023/04/09 06:31:15;;;;;;;14.05;9.40;;;;;;;;;;6241326;28;20037;-76
2023/04/09 06:34:18;;;;;;;13.43;9.60;;;;;;;;;;6242569;28;20345;-77
2023/04/09 06:37:20;;;;;;;14.68;10.00;;;;;;;;;;6244627;28;20057;-76
2023/04/09 06:40:22;;;;;;;13.93;10.30;;;;;;;;;;6244675;28;20111;-77
2023/04/09 06:43:23;;;;;;;17.67;10.38;;;;;;;;;;6243567;28;20069;-77
2023/04/09 06:46:25;;;;;;;14.35;10.40;;;;;;;;;;6243349;28;20068;-77
2023/04/09 06:49:28;;;;;;;13.70;9.63;;;;;;;;;;6241537;28;20088;-76
2023/04/09 06:52:29;;;;;;;12.55;9.80;;;;;;;;;;6242785;28;20046;-77
2023/04/09 06:55:31;;;;;;;12.90;9.65;;;;;;;;;;6242201;28;20313;-77
2023/04/09 06:58:33;;;;;;;13.52;10.45;;;;;;;;;;6243325;28;20285;-76
2023/04/09 07:01:36;;;;;;;13.60;9.93;;;;;;;;;;6240686;28;20336;-76
2023/04/09 07:04:40;;;;;;;15.10;10.35;;;;;;;;;;6242933;28;20053;-77
2023/04/09 07:07:41;;;;;;;15.93;10.63;;;;;;;;;;6243069;28;20053;-77
2023/04/09 07:10:43;;;;;;;12.73;10.23;;;;;;;;;;6240989;28;20053;-77
2023/04/09 07:13:44;;;;;;;14.05;10.50;;;;;;;;;;6240317;28;20237;-77
2023/04/09 07:16:46;;;;;;;14.13;9.93;;;;;;;;;;6242924;28;20062;-77
2023/04/09 07:19:50;;;;;;;15.40;11.00;;;;;;;;;;6242178;28;20046;-76
2023/04/09 07:22:52;;;;;;;13.80;10.63;;;;;;;;;;6244190;28;20124;-76
2023/04/09 07:25:53;;;;;;;13.05;9.90;;;;;;;;;;6242507;28;20120;-76
2023/04/09 07:28:55;;;;;;;16.70;10.50;;;;;;;;;;6243453;28;20045;-76
2023/04/09 07:31:56;;;;;;;13.55;10.55;;;;;;;;;;6242908;28;20116;-76
2023/04/09 07:35:01;;;;;;;13.88;9.32;;;;;;;;;;6241671;28;20075;-76
2023/04/09 07:38:02;;;;;;;14.48;10.60;;;;;;;;;;6242638;28;20301;-77
2023/04/09 07:41:04;;;;;;;13.30;9.85;;;;;;;;;;6240236;28;20341;-76
2023/04/09 07:44:06;;;;;;;13.55;10.65;;;;;;;;;;6242438;28;20359;-77
2023/04/09 07:47:08;;;;;;;13.52;9.77;;;;;;;;;;6244122;28;20092;-76
2023/04/09 07:50:11;;;;;;;13.85;9.52;;;;;;;;;;6241239;28;20065;-76
2023/04/09 07:53:13;;;;;;;19.60;10.17;;;;;;;;;;6242535;28;20118;-77
2023/04/09 07:56:14;;;;;;;13.80;9.75;;;;;;;;;;6240734;28;20530;-77
2023/04/09 07:59:16;;;;;;;12.90;9.60;;;;;;;;;;6242163;28;20049;-77
2023/04/09 08:02:18;;;;;;;12.30;9.45;;;;;;;;;;6244309;28;20073;-77
2023/04/09 08:05:21;;;;;;;10.55;8.65;;;;;;;;;;6241402;28;20061;-77
2023/04/09 08:08:22;;;;;;;14.05;8.88;;;;;;;;;;6242132;28;20325;-77
2023/04/09 08:11:25;;;;;;;12.15;8.73;;;;;;;;;;6244722;28;20096;-77
2023/04/09 08:14:26;;;;;;;11.30;8.88;;;;;;;;;;6241048;28;20067;-77
2023/04/09 08:17:28;;;;;;;9.93;8.45;;;;;;;;;;6240356;28;20057;-77
2023/04/09 08:20:31;;;;;;;9.98;7.80;;;;;;;;;;6240276;28;20334;-78
2023/04/09 08:23:33;;;;;;;12.77;9.10;;;;;;;;;;6242497;28;20101;-76
2023/04/09 08:26:35;;;;;;;9.90;8.50;;;;;;;;;;6240651;28;20053;-77
2023/04/09 08:29:38;;;;;;;10.52;8.95;;;;;;;;;;6239462;28;20100;-77
2023/04/09 08:32:39;;;;;;;10.73;8.43;;;;;;;;;;6241282;28;20124;-76
2023/04/09 08:35:43;;;;;;;10.85;8.27;;;;;;;;;;6240653;28;20404;-77
2023/04/09 08:38:45;;;;;;;13.25;8.68;;;;;;;;;;6241328;28;20133;-76
2023/04/09 08:41:47;;;;;;;10.67;8.93;;;;;;;;;;6240754;28;20057;-76
2023/04/09 08:44:50;;;;;;;10.75;8.27;;;;;;;;;;6244457;28;20115;-77
2023/04/09 08:47:52;;;;;;;10.88;8.55;;;;;;;;;;6245410;28;20392;-77
2023/04/09 08:50:55;;;;;;;8.70;7.60;;;;;;;;;;6241778;28;20148;-77
2023/04/09 08:53:57;;;;;;;10.27;7.60;;;;;;;;;;6242779;28;20119;-77
2023/04/09 08:56:59;;;;;;;11.60;8.43;;;;;;;;;;6238851;28;20696;-77
2023/04/09 09:00:01;;;;;;;11.35;8.45;;;;;;;;;;6242075;28;20050;-77
2023/04/09 09:03:03;;;;;;;10.13;8.35;;;;;;;;;;6239977;28;20049;-77
2023/04/09 09:06:21;;;;;;;10.65;7.63;;;;;;;;;;6241015;28;20041;-76
2023/04/09 09:09:23;;;;;;;11.13;7.15;;;;;;;;;;6242129;28;20719;-77
2023/04/09 09:12:34;;;;;;;10.50;6.40;;;;;;;;;;6238269;28;20093;-77
2023/04/09 09:15:36;;;;;;;12.30;6.97;;;;;;;;;;6239385;28;20068;-77
2023/04/09 09:18:39;;;;;;;7.63;6.80;;;;;;;;;;6241250;28;20046;-77
2023/04/09 09:21:42;;;;;;;8.75;6.72;;;;;;;;;;6239970;28;20129;-77
2023/04/09 09:24:48;;;;;;;8.60;6.47;;;;;;;;;;6241980;28;20100;-77
2023/04/09 09:27:49;;;;;;;8.30;6.07;;;;;;;;;;6245853;28;20392;-78
2023/04/09 09:30:51;;;;;;;8.57;7.25;;;;;;;;;;6244709;28;20049;-77
2023/04/09 09:33:52;;;;;;;8.95;7.25;;;;;;;;;;6246668;28;20065;-78
2023/04/09 09:36:55;;;;;;;8.43;7.03;;;;;;;;;;6244529;28;20057;-77
2023/04/09 09:39:57;;;;;;;11.77;6.25;;;;;;;;;;6245450;28;20053;-77
2023/04/09 09:42:59;;;;;;;9.27;5.63;;;;;;;;;;6246334;28;20061;-78
2023/04/09 09:46:01;;;;;;;8.60;7.25;;;;;;;;;;6246298;28;20104;-78
2023/04/09 09:49:03;;;;;;;9.68;6.88;;;;;;;;;;6246655;28;20061;-78
2023/04/09 09:52:07;;;;;;;8.55;6.38;;;;;;;;;;6242572;28;20056;-77
2023/04/09 09:55:10;;;;;;;9.57;6.78;;;;;;;;;;6244901;28;20057;-78
2023/04/09 09:58:16;;;;;;;9.60;8.23;;;;;;;;;;6243414;28;20073;-77
2023/04/09 10:01:20;;;;;;;8.57;7.50;;;;;;;;;;6243533;28;20330;-77
2023/04/09 10:04:23;;;;;;;11.73;7.38;;;;;;;;;;6246655;28;20061;-77
2023/04/09 10:07:26;;;;;;;8.02;6.95;;;;;;;;;;6242231;28;20056;-77
2023/04/09 10:10:28;;;;;;;9.25;6.32;;;;;;;;;;6241467;28;20069;-78
2023/04/09 10:13:34;;;;;;;7.63;6.28;;;;;;;;;;6244575;28;20072;-77
2023/04/09 10:16:36;;;;;;;9.18;7.45;;;;;;;;;;6245557;28;20077;-78
2023/04/09 10:19:42;;;;;;;8.73;6.88;;;;;;;;;;6243127;28;20411;-77
2023/04/09 10:22:48;;;;;;;7.18;6.40;;;;;;;;;;6243984;28;20327;-78
2023/04/09 10:25:50;;;;;;;5.13;4.50;;;;;;;;;;6243741;28;20103;-77
2023/04/09 10:29:10;;;;;;;6.70;5.75;;;;;;;;;;6243182;28;20120;-78
2023/04/09 10:32:12;;;;;;;8.18;6.95;;;;;;;;;;6244849;28;20134;-77
2023/04/09 10:35:25;;;;;;;11.82;7.10;;;;;;;;;;6243257;28;20092;-78
2023/04/09 10:38:36;;;;;;;8.90;6.72;;;;;;;;;;6243521;28;20053;-78
2023/04/09 10:41:38;;;;;;;9.57;6.70;;;;;;;;;;6241029;28;20072;-78
2023/04/09 10:44:41;;;;;;;9.07;6.15;;;;;;;;;;6245864;28;20048;-77
2023/04/09 10:47:45;;;;;;;9.75;7.63;;;;;;;;;;6241200;28;20114;-77
2023/04/09 10:50:46;;;;;;;9.00;7.40;;;;;;;;;;6239668;28;20058;-77
2023/04/09 10:53:53;;;;;;;10.38;6.90;;;;;;;;;;6244606;28;20108;-77
2023/04/09 10:57:14;;;;;;;9.50;7.78;;;;;;;;;;6244866;28;20053;-77
2023/04/09 11:00:17;;;;;;;8.43;7.03;;;;;;;;;;6243486;28;20045;-77
2023/04/09 11:03:21;;;;;;;8.00;6.22;;;;;;;;;;6241692;28;20089;-77
2023/04/09 11:06:23;;;;;;;7.70;6.72;;;;;;;;;;6245360;28;20085;-77
2023/04/09 11:09:26;;;;;;;9.43;7.32;;;;;;;;;;6240667;28;20045;-77
2023/04/09 11:12:28;;;;;;;9.80;6.40;;;;;;;;;;6243572;28;20420;-77
2023/04/09 11:15:31;;;;;;;7.97;6.03;;;;;;;;;;6239499;28;20211;-78
2023/04/09 11:18:33;;;;;;;9.00;7.82;;;;;;;;;;6243727;28;20115;-78
2023/04/09 11:21:35;;;;;;;9.80;8.07;;;;;;;;;;6243163;28;20064;-78
2023/04/09 11:24:41;;;;;;;6.95;6.25;;;;;;;;;;6243441;28;20060;-77
2023/04/09 11:27:45;;;;;;;7.68;6.15;;;;;;;;;;6243662;28;20073;-78
2023/04/09 11:30:47;;;;;;;7.63;6.80;;;;;;;;;;6243373;28;20348;-77
2023/04/09 11:33:51;;;;;;;8.23;6.63;;;;;;;;;;6242816;28;20053;-78
2023/04/09 11:36:52;;;;;;;7.13;6.43;;;;;;;;;;6243249;28;20332;-77
2023/04/09 11:39:57;;;;;;;8.13;6.47;;;;;;;;;;6244893;28;20103;-77
2023/04/09 11:42:59;;;;;;;7.22;6.53;;;;;;;;;;6243032;28;20081;-78
2023/04/09 11:46:01;;;;;;;7.47;5.57;;;;;;;;;;6242278;28;20048;-77
2023/04/09 11:49:03;;;;;;;7.40;6.43;;;;;;;;;;6240136;28;20096;-78
2023/04/09 11:52:05;;;;;;;7.72;6.80;;;;;;;;;;6242668;28;20038;-78
2023/04/09 11:55:09;;;;;;;6.50;5.80;;;;;;;;;;6240155;28;20061;-78
2023/04/09 11:58:11;;;;;;;7.60;6.72;;;;;;;;;;6240549;28;20046;-77
2023/04/09 12:01:12;;;;;;;9.07;6.70;;;;;;;;;;6240271;28;20095;-78
2023/04/09 12:04:19;;;;;;;6.38;5.65;;;;;;;;;;6245288;28;20053;-77
2023/04/09 12:07:21;;;;;;;6.22;5.05;;;;;;;;;;6241117;28;20373;-78
2023/04/09 12:10:26;;;;;;;5.68;5.10;;;;;;;;;;6243620;28;20321;-78
2023/04/09 12:13:32;;;;;;;6.13;5.03;;;;;;;;;;6241398;28;20045;-78
2023/04/09 12:16:35;;;;;;;7.38;4.68;;;;;;;;;;6242857;28;20049;-78
2023/04/09 12:19:36;;;;;;;10.10;5.68;;;;;;;;;;6238067;28;20078;-78
2023/04/09 12:22:40;;;;;;;6.05;4.30;;;;;;;;;;6241698;28;20285;-78
2023/04/09 12:25:43;;;;;;;;;;;;;;;;;;6241964;28;20045;-78
2023/04/09 12:28:44;;;;;;;5.90;4.20;;;;;;;;;;6238997;28;19932;-78
2023/04/09 12:31:47;;;;;;;4.57;3.92;;;;;;;;;;6240000;28;20049;-79
2023/04/09 12:34:48;;;;;;;7.47;4.97;;;;;;;;;;6241401;28;20053;-79
2023/04/09 12:37:51;;;;;;;5.32;4.85;;;;;;;;;;6242502;28;20049;-78
2023/04/09 12:40:54;;;;;;;4.80;4.28;;;;;;;;;;6239846;28;20342;-78
2023/04/09 12:43:55;;;;;;;;;;;;;;;;;;6241961;28;20230;-78
2023/04/09 12:46:57;;;;;;;6.25;4.65;;;;;;;;;;6240091;28;19925;-78
2023/04/09 12:49:58;;;;;;;6.15;4.88;;;;;;;;;;6238804;28;20058;-78
2023/04/09 12:53:00;;;;;;;7.40;4.53;;;;;;;;;;6239471;28;20108;-77
2023/04/09 12:56:03;;;;;;;6.63;4.40;;;;;;;;;;6239286;28;20443;-78
2023/04/09 12:59:05;;;;;;;;;;;;;;;;;;6240261;28;20064;-78
2023/04/09 13:02:06;;;;;;;5.35;4.50;;;;;;;;;;6249246;28;19917;-77
2023/04/09 13:05:08;;;;;;;4.53;4.13;;;;;;;;;;6253073;28;20053;-78
2023/04/09 13:08:10;;;;;;;5.00;4.50;;;;;;;;;;6248722;28;20049;-78
2023/04/09 13:11:13;;;;;;;7.32;4.60;;;;;;;;;;6248403;28;20104;-78
2023/04/09 13:14:15;;;;;;;6.63;4.65;;;;;;;;;;6248590;28;20066;-78
2023/04/09 13:17:16;;;;;;;5.80;4.65;;;;;;;;;;6248281;28;20069;-78
2023/04/09 13:20:18;;;;;;;5.28;4.20;;;;;;;;;;6249849;28;20372;-78
2023/04/09 13:23:19;;;;;;;5.35;4.55;;;;;;;;;;6249009;28;20396;-78
2023/04/09 13:26:22;;;;;;;4.53;4.03;;;;;;;;;;6246105;28;20123;-78
2023/04/09 13:29:27;;;;;;;5.80;5.30;;;;;;;;;;6247757;28;20054;-78
2023/04/09 13:32:29;;;;;;;5.20;4.70;;;;;;;;;;6247765;28;20246;-79
2023/04/09 13:35:31;;;;;;;5.50;4.60;;;;;;;;;;6248943;28;20053;-79
2023/04/09 13:38:32;;;;;;;5.00;3.60;;;;;;;;;;6250991;28;20329;-78
2023/04/09 13:41:35;;;;;;;4.88;4.32;;;;;;;;;;6248496;28;20065;-79
2023/04/09 13:44:39;;;;;;;5.07;4.57;;;;;;;;;;6249490;28;20089;-79
2023/04/09 13:47:41;;;;;;;6.07;4.38;;;;;;;;;;6249352;28;20088;-78
2023/04/09 13:50:43;;;;;;;5.47;4.97;;;;;;;;;;6248450;28;20057;-78
2023/04/09 13:53:45;;;;;;;5.55;4.88;;;;;;;;;;6246959;28;20054;-79
2023/04/09 13:56:49;;;;;;;4.97;4.47;;;;;;;;;;6249676;28;20049;-79
2023/04/09 13:59:51;;;;;;;7.35;4.18;;;;;;;;;;6247566;28;20049;-78
2023/04/09 14:02:52;;;;;;;5.65;4.50;;;;;;;;;;6238752;28;20055;-78
2023/04/09 14:05:55;;;;;;;7.72;4.38;;;;;;;;;;6246566;28;20053;-78
2023/04/09 14:08:56;;;;;;;6.35;4.70;;;;;;;;;;6246570;28;20337;-78
2023/04/09 14:12:00;;;;;;;7.55;4.50;;;;;;;;;;6237028;28;20095;-79
2023/04/09 14:15:02;;;;;;;4.47;4.07;;;;;;;;;;6243456;28;20765;-79
2023/04/09 14:18:03;;;;;;;5.03;3.95;;;;;;;;;;6243822;28;20134;-78
2023/04/09 14:21:06;;;;;;;5.95;4.10;;;;;;;;;;6243322;28;20092;-78
2023/04/09 14:24:07;;;;;;;4.38;3.97;;;;;;;;;;6247710;28;20049;-78
2023/04/09 14:27:10;;;;;;;6.63;4.40;;;;;;;;;;6247291;28;20265;-78
2023/04/09 14:30:12;;;;;;;;;;;;;;;;;;6251283;28;20057;-78
2023/04/09 14:33:13;;;;;;;4.40;3.92;;;;;;;;;;6248214;28;19920;-78
2023/04/09 14:36:15;;;;;;;4.47;4.05;;;;;;;;;;6248333;28;20053;-79
2023/04/09 14:39:18;;;;;;;4.70;4.15;;;;;;;;;;6246544;28;20060;-78
2023/04/09 14:42:21;;;;;;;4.75;4.25;;;;;;;;;;6247917;28;20054;-78
2023/04/09 14:45:22;;;;;;;4.93;4.43;;;;;;;;;;6244868;28;20057;-78
2023/04/09 14:48:24;;;;;;;5.15;4.22;;;;;;;;;;6249065;28;20056;-79
2023/04/09 14:51:26;;;;;;;4.90;3.88;;;;;;;;;;6245414;28;20498;-78
2023/04/09 14:54:29;;;;;;;4.15;3.75;;;;;;;;;;6248127;28;20062;-78
2023/04/09 14:57:32;;;;;;;4.00;3.50;;;;;;;;;;6244753;28;20284;-78
2023/04/09 15:00:34;;;;;;;3.63;3.33;;;;;;;;;;6242447;28;20046;-78
2023/04/09 15:03:35;;;;;;;4.93;4.00;;;;;;;;;;6241651;28;20245;-78
2023/04/09 15:06:37;;;;;;;4.63;3.85;;;;;;;;;;6242057;28;20041;-78
2023/04/09 15:09:39;;;;;;;5.05;3.90;;;;;;;;;;6243304;28;20057;-78
2023/04/09 15:12:42;;;;;;;5.60;4.03;;;;;;;;;;6242842;28;20277;-79
2023/04/09 15:15:43;;;;;;;5.13;4.00;;;;;;;;;;6242588;28;20045;-79
2023/04/09 15:18:47;;;;;;;6.15;3.83;;;;;;;;;;6240362;28;20345;-78
2023/04/09 15:21:48;;;;;;;4.70;4.25;;;;;;;;;;6240585;28;20061;-78
2023/04/09 15:24:50;;;;;;;5.35;4.32;;;;;;;;;;6241631;28;20337;-78
2023/04/09 15:27:53;;;;;;;4.95;4.20;;;;;;;;;;6242231;28;20336;-78
2023/04/09 15:30:55;;;;;;;4.82;4.38;;;;;;;;;;6241566;28;20064;-78
2023/04/09 15:33:56;;;;;;;6.47;3.67;;;;;;;;;;6237328;28;20207;-78
2023/04/09 15:36:58;;;;;;;4.45;4.05;;;;;;;;;;6234816;28;20057;-78
2023/04/09 15:40:00;;;;;;;5.38;4.88;;;;;;;;;;6241991;28;20045;-78
2023/04/09 15:43:03;;;;;;;4.95;4.50;;;;;;;;;;6243788;28;20045;-78
2023/04/09 15:46:09;;;;;;;4.45;3.70;;;;;;;;;;6239895;28;20095;-78
2023/04/09 15:49:11;;;;;;;5.50;4.70;;;;;;;;;;6239127;28;20109;-78
2023/04/09 15:52:13;;;;;;;6.30;4.13;;;;;;;;;;6240833;28;20118;-78
2023/04/09 15:55:14;;;;;;;4.85;4.35;;;;;;;;;;6239021;28;20045;-78
2023/04/09 15:58:17;;;;;;;5.80;4.40;;;;;;;;;;6241455;28;20049;-78
2023/04/09 16:01:19;;;;;;;5.95;4.50;;;;;;;;;;6240479;28;20099;-78
2023/04/09 16:04:21;;;;;;;5.28;4.10;;;;;;;;;;6242849;28;20115;-78
2023/04/09 16:07:22;;;;;;;5.55;4.40;;;;;;;;;;6240766;28;20042;-78
2023/04/09 16:10:24;;;;;;;4.45;3.83;;;;;;;;;;6238762;28;20045;-78
2023/04/09 16:13:27;;;;;;;4.95;4.32;;;;;;;;;;6240494;28;20381;-78
2023/04/09 16:16:29;;;;;;;4.88;4.20;;;;;;;;;;6238437;28;20121;-78
2023/04/09 16:19:30;;;;;;;5.05;4.55;;;;;;;;;;6241725;28;20143;-78
2023/04/09 16:22:33;;;;;;;5.10;4.60;;;;;;;;;;6240963;28;20049;-78
2023/04/09 16:25:35;;;;;;;4.80;4.30;;;;;;;;;;6240510;28;20341;-77
2023/04/09 16:28:38;;;;;;;6.30;4.05;;;;;;;;;;6240675;28;20361;-78
2023/04/09 16:31:40;;;;;;;;;;;;;;;;;;6241178;28;20049;-78
2023/04/09 16:34:42;;;;;;;4.60;4.15;;;;;;;;;;6240735;28;19960;-78
2023/04/09 16:37:44;;;;;;;5.28;3.97;;;;;;;;;;6242397;28;20395;-78
2023/04/09 16:40:45;;;;;;;4.45;4.00;;;;;;;;;;6239850;28;20614;-78
2023/04/09 16:43:49;;;;;;;4.30;3.85;;;;;;;;;;6241658;28;20064;-78
2023/04/09 16:46:51;;;;;;;4.90;4.40;;;;;;;;;;6241352;28;20060;-77
2023/04/09 16:49:53;;;;;;;4.97;4.20;;;;;;;;;;6238254;28;20053;-77
2023/04/09 16:52:54;;;;;;;5.28;4.43;;;;;;;;;;6238463;28;20061;-78
2023/04/09 16:55:56;;;;;;;6.88;4.75;;;;;;;;;;6241102;28;20394;-78
2023/04/09 16:58:59;;;;;;;5.18;4.47;;;;;;;;;;6239834;28;20061;-77
2023/04/09 17:02:01;;;;;;;5.38;4.88;;;;;;;;;;6238466;28;20329;-77
2023/04/09 17:05:03;;;;;;;6.03;5.18;;;;;;;;;;6237136;28;20057;-77
2023/04/09 17:08:05;;;;;;;6.13;4.78;;;;;;;;;;6239631;28;20120;-77
2023/04/09 17:11:07;;;;;;;6.38;4.68;;;;;;;;;;6238187;28;20061;-77
2023/04/09 17:14:10;;;;;;;6.05;4.75;;;;;;;;;;6237890;28;20096;-78
2023/04/09 17:17:12;;;;;;;5.40;4.45;;;;;;;;;;6238609;28;20065;-77
2023/04/09 17:20:13;;;;;;;6.70;4.57;;;;;;;;;;6238339;28;20380;-77
2023/04/09 17:23:15;;;;;;;5.32;4.50;;;;;;;;;;6239146;28;20069;-77
2023/04/09 17:26:17;;;;;;;7.60;4.35;;;;;;;;;;6238656;28;20056;-77
2023/04/09 17:29:20;;;;;;;7.60;4.88;;;;;;;;;;6240362;28;20049;-77
2023/04/09 17:32:22;;;;;;;4.23;3.80;;;;;;;;;;6238574;28;20057;-77
2023/04/09 17:35:24;;;;;;;7.43;4.95;;;;;;;;;;6235911;28;20065;-78
2023/04/09 17:38:25;;;;;;;5.13;4.63;;;;;;;;;;6242550;28;20049;-77
2023/04/09 17:41:27;;;;;;;7.20;4.50;;;;;;;;;;6238117;28;20146;-77
2023/04/09 17:44:33;;;;;;;5.13;4.50;;;;;;;;;;6239672;28;20116;-77
2023/04/09 17:47:35;;;;;;;4.88;4.13;;;;;;;;;;6240290;28;20084;-77
2023/04/09 17:50:37;;;;;;;5.47;4.30;;;;;;;;;;6240838;28;20099;-77
2023/04/09 17:53:40;;;;;;;6.45;4.50;;;;;;;;;;6244278;28;20302;-77
2023/04/09 17:56:42;;;;;;;4.78;4.18;;;;;;;;;;6242878;28;20045;-77
2023/04/09 17:59:45;;;;;;;5.63;4.35;;;;;;;;;;6241780;28;20049;-77
2023/04/09 18:02:46;;;;;;;5.70;4.00;;;;;;;;;;6245320;28;20100;-77